Impacts TAF Board
For situational awareness. Not to be used for flight planning purposes.
IDs:

KLAX - Los Angeles Intl, CA, US

Issued at 2329 UTC 16 Jul 2019
Updated at 0036 UTC 17 Jul 2019
Potential Impact None Slight Moderate High
Time<<17/13Z 17/14Z 17/15Z 17/16Z 17/17Z 17/18Z 17/19Z 17/20Z 17/21Z 17/22Z 17/23Z 18/00Z 18/01Z>>
Type PRVL PRVL PRVL PRVL PRVL PRVL PRVL PRVL PRVL PRVL PRVL PRVL PRVL
VIS 5 5 5 6 6 6 6 >6 >6 >6 >6 >6 >6
CIG 8 8 8 10 10 10 10 -- -- -- -- -- --
Cover OVC OVC OVC BKN BKN BKN BKN SKC SKC SKC SKC SKC SKC
FltCat IFR IFR IFR MVFR MVFR MVFR MVFR VFR VFR VFR VFR VFR VFR
WX BR BR BR HZ HZ HZ HZ -- -- -- -- -- --
WDir VRB VRB VRB 210 210 210 210 260 260 260 260 260 260
WSpd 3 3 3 7 7 7 7 10 10 10 10 10 10
WGst -- -- -- -- -- -- -- -- -- -- -- -- --
Raw TAF
KLAX 162329Z 1700/1806 26010KT P6SM FEW008
  FM170400 26008KT 6SM HZ SCT010
  FM170700 VRB03KT 5SM BR OVC008
  FM171600 21007KT 6SM HZ BKN010
  FM172000 26010KT P6SM SKC
  FM180300 25009KT P6SM FEW250


METAR Board
Radar Display
Forecast Discussion
For situational awareness. Not to be used for flight planning purposes.